Time;durP1;ratioP1;P1;durP2;ratioP2;P2;SDS_P1;SDS_P2;PMS_P1;PMS_P2;Temp;Humidity;BMP_temperature;BMP_pressure;BME280_temperature;BME280_humidity;BME280_pressure;Samples;Min_cycle;Max_cycle;Signal;HPM_P1;HPM_P2
2023/06/28 00:00:52;;;;;;;12.80;10.00;;;19.50;99.90;;;;;;6122435;23;20178;-75
2023/06/28 00:03:18;;;;;;;11.27;9.23;;;19.50;99.90;;;;;;6149427;23;20599;-75
2023/06/28 00:05:44;;;;;;;12.40;9.00;;;19.60;99.90;;;;;;6148679;23;20564;-80
2023/06/28 00:08:10;;;;;;;12.60;10.20;;;19.60;99.90;;;;;;6121714;23;20190;-76
2023/06/28 00:10:36;;;;;;;13.67;10.07;;;19.60;99.90;;;;;;6148597;23;20380;-76
2023/06/28 00:13:01;;;;;;;14.13;9.37;;;19.60;99.90;;;;;;6122369;23;20217;-80
2023/06/28 00:15:27;;;;;;;10.23;9.13;;;19.60;99.90;;;;;;6148450;23;20656;-76
2023/06/28 00:17:53;;;;;;;11.50;10.40;;;19.60;99.90;;;;;;6122566;23;20170;-75
2023/06/28 00:20:18;;;;;;;10.67;9.67;;;19.60;99.90;;;;;;6148646;23;20154;-80
2023/06/28 00:22:44;;;;;;;12.50;9.40;;;19.70;99.90;;;;;;6122706;23;20225;-81
2023/06/28 00:25:10;;;;;;;11.20;10.03;;;19.70;99.90;;;;;;6148342;23;20182;-80
2023/06/28 00:27:35;;;;;;;13.87;9.40;;;19.70;99.90;;;;;;6122208;23;20281;-80
2023/06/28 00:30:01;;;;;;;23.30;10.00;;;19.70;99.90;;;;;;6148173;23;20185;-78
2023/06/28 00:32:28;;;;;;;10.60;9.60;;;19.70;99.90;;;;;;6148358;23;20213;-80
2023/06/28 00:34:54;;;;;;;10.10;9.10;;;19.70;99.90;;;;;;6148182;23;20518;-76
2023/06/28 00:37:20;;;;;;;14.67;10.30;;;19.70;99.90;;;;;;6148697;23;20455;-80
2023/06/28 00:39:45;;;;;;;10.40;9.50;;;19.70;99.90;;;;;;6122180;23;20159;-76
2023/06/28 00:42:11;;;;;;;11.27;10.07;;;19.70;99.90;;;;;;6148641;23;20277;-75
2023/06/28 00:44:37;;;;;;;10.10;8.97;;;19.70;99.90;;;;;;6147517;23;20450;-79
2023/06/28 00:47:03;;;;;;;20.37;9.20;;;19.80;99.90;;;;;;6148372;23;20178;-76
2023/06/28 00:49:32;;;;;;;11.20;10.00;;;19.70;99.90;;;;;;6121849;23;20440;-76
2023/06/28 00:51:59;;;;;;;11.73;10.53;;;19.70;99.90;;;;;;6148125;23;20429;-76
2023/06/28 00:54:25;;;;;;;12.60;10.10;;;19.70;99.90;;;;;;6148446;23;20370;-80
2023/06/28 00:56:52;;;;;;;11.70;10.53;;;19.70;99.90;;;;;;6122103;23;20737;-80
2023/06/28 00:59:18;;;;;;;16.00;10.70;;;19.70;99.90;;;;;;6122334;23;20925;-80
2023/06/28 01:01:44;;;;;;;11.60;9.10;;;19.70;99.90;;;;;;6148597;23;20430;-75
2023/06/28 01:04:13;;;;;;;11.37;10.27;;;19.70;99.90;;;;;;6148512;23;20850;-76
2023/06/28 01:06:40;;;;;;;11.30;10.20;;;19.70;99.90;;;;;;6148454;23;20798;-76
2023/06/28 01:09:08;;;;;;;15.23;10.47;;;19.70;99.90;;;;;;6147643;23;20863;-80
2023/06/28 01:11:35;;;;;;;13.07;10.40;;;19.70;99.90;;;;;;6148853;23;20400;-79
2023/06/28 01:14:02;;;;;;;12.20;10.10;;;19.60;99.90;;;;;;6148495;23;20870;-80
2023/06/28 01:16:28;;;;;;;11.43;10.20;;;19.60;99.90;;;;;;6122117;23;20580;-76
2023/06/28 01:18:54;;;;;;;11.97;10.83;;;19.60;99.90;;;;;;6121814;23;20412;-76
2023/06/28 01:21:22;;;;;;;12.27;10.97;;;19.60;99.90;;;;;;6148578;23;20420;-81
2023/06/28 01:23:48;;;;;;;11.10;10.00;;;19.60;99.90;;;;;;6148361;23;20392;-80
2023/06/28 01:26:15;;;;;;;16.30;11.90;;;19.60;99.90;;;;;;6148577;23;20425;-76
2023/06/28 01:28:42;;;;;;;10.73;9.63;;;19.50;99.90;;;;;;6148490;23;20494;-81
2023/06/28 01:31:08;;;;;;;11.70;10.30;;;19.50;99.90;;;;;;6148157;23;20398;-76
2023/06/28 01:33:34;;;;;;;15.40;11.63;;;19.50;99.90;;;;;;6148055;23;20539;-76
2023/06/28 01:36:00;;;;;;;14.50;11.57;;;19.50;99.90;;;;;;6148292;23;20642;-76
2023/06/28 01:38:28;;;;;;;12.60;11.37;;;19.50;99.90;;;;;;6148648;23;20505;-75
2023/06/28 01:40:54;;;;;;;14.00;11.30;;;19.50;99.90;;;;;;6150252;23;20706;-75
2023/06/28 01:43:21;;;;;;;17.73;11.33;;;19.50;99.90;;;;;;6150477;23;20776;-76
2023/06/28 01:45:49;;;;;;;15.77;11.23;;;19.50;99.90;;;;;;6148959;23;20696;-76
2023/06/28 01:48:17;;;;;;;12.30;11.20;;;19.50;99.90;;;;;;6149934;23;20511;-76
2023/06/28 01:50:43;;;;;;;13.00;11.30;;;19.50;99.90;;;;;;6123526;23;20409;-80
2023/06/28 01:53:09;;;;;;;14.27;11.30;;;19.50;99.90;;;;;;6123616;23;20470;-80
2023/06/28 01:55:34;;;;;;;18.00;11.27;;;19.60;99.90;;;;;;6149770;23;20385;-80
2023/06/28 01:58:00;;;;;;;13.93;12.07;;;19.60;99.90;;;;;;6123853;23;20659;-80
2023/06/28 02:00:26;;;;;;;15.30;11.00;;;19.60;99.90;;;;;;6149579;23;20165;-80
2023/06/28 02:02:53;;;;;;;14.03;12.50;;;19.50;99.90;;;;;;6149928;23;20488;-80
2023/06/28 02:05:19;;;;;;;11.57;10.37;;;19.50;99.90;;;;;;6149026;23;20452;-75
2023/06/28 02:07:44;;;;;;;12.60;11.30;;;19.50;99.90;;;;;;6123083;23;20672;-76
2023/06/28 02:10:11;;;;;;;13.90;10.93;;;19.50;99.90;;;;;;6149125;23;20428;-79
2023/06/28 02:12:36;;;;;;;14.03;11.80;;;19.50;99.90;;;;;;6149621;23;20672;-80
2023/06/28 02:15:02;;;;;;;13.17;11.97;;;19.50;99.90;;;;;;6123062;23;20480;-75
2023/06/28 02:17:31;;;;;;;12.30;11.10;;;19.60;99.90;;;;;;6149909;23;20182;-80
2023/06/28 02:19:57;;;;;;;13.67;12.27;;;19.60;99.90;;;;;;6123155;23;20545;-76
2023/06/28 02:22:23;;;;;;;14.30;11.60;;;19.60;99.90;;;;;;6149672;23;20761;-76
2023/06/28 02:24:48;;;;;;;15.73;11.47;;;19.60;99.90;;;;;;6122948;23;20380;-80
2023/06/28 02:27:14;;;;;;;12.90;11.50;;;19.60;99.90;;;;;;6123411;23;20186;-80
2023/06/28 02:29:40;;;;;;;14.93;12.33;;;19.60;99.90;;;;;;6123281;23;20185;-76
2023/06/28 02:32:06;;;;;;;13.20;11.73;;;19.60;99.90;;;;;;6149254;23;20424;-76
2023/06/28 02:34:32;;;;;;;16.23;12.20;;;19.50;99.90;;;;;;6149226;23;20153;-75
2023/06/28 02:36:58;;;;;;;15.80;12.33;;;19.50;99.90;;;;;;6149500;23;20940;-75
2023/06/28 02:39:24;;;;;;;21.53;14.80;;;19.50;99.90;;;;;;6122930;23;20154;-75
2023/06/28 02:41:50;;;;;;;15.33;11.67;;;19.50;99.90;;;;;;6149230;23;20415;-76
2023/06/28 02:44:15;;;;;;;14.53;12.00;;;19.50;99.90;;;;;;6149352;23;20276;-77
2023/06/28 02:46:41;;;;;;;14.90;12.07;;;19.50;99.90;;;;;;6123157;23;20850;-80
2023/06/28 02:49:07;;;;;;;15.50;13.03;;;19.50;99.90;;;;;;6121506;23;20303;-80
2023/06/28 02:51:33;;;;;;;15.40;12.20;;;19.50;99.90;;;;;;6148967;23;20221;-76
2023/06/28 02:53:59;;;;;;;13.77;12.30;;;19.50;99.90;;;;;;6148789;23;20451;-80
2023/06/28 02:56:25;;;;;;;13.30;11.50;;;19.50;99.90;;;;;;6149446;23;20202;-76
2023/06/28 02:58:51;;;;;;;13.53;12.13;;;19.50;99.90;;;;;;6148446;23;20412;-80
2023/06/28 03:01:18;;;;;;;15.37;12.50;;;19.50;99.90;;;;;;6149590;23;20400;-76
2023/06/28 03:03:43;;;;;;;13.53;12.10;;;19.50;99.90;;;;;;6148828;23;20521;-80
2023/06/28 03:06:09;;;;;;;14.80;13.20;;;19.50;99.90;;;;;;6149020;23;20874;-76
2023/06/28 03:08:34;;;;;;;17.80;12.20;;;19.50;99.90;;;;;;6122075;23;20166;-80
2023/06/28 03:11:00;;;;;;;13.90;12.27;;;19.50;99.90;;;;;;6149520;23;20174;-76
2023/06/28 03:13:26;;;;;;;16.07;13.00;;;19.50;99.90;;;;;;6122580;23;20202;-75
2023/06/28 03:15:51;;;;;;;18.30;13.40;;;19.50;99.90;;;;;;6148768;23;20166;-75
2023/06/28 03:18:17;;;;;;;14.30;12.87;;;19.60;99.90;;;;;;6149430;23;20197;-80
2023/06/28 03:20:43;;;;;;;14.80;13.37;;;19.50;99.90;;;;;;6149544;23;20699;-76
2023/06/28 03:23:08;;;;;;;14.97;12.27;;;19.50;99.90;;;;;;6149331;23;20278;-76
2023/06/28 03:25:34;;;;;;;14.10;12.30;;;19.60;99.90;;;;;;6148733;23;20597;-80
2023/06/28 03:28:00;;;;;;;14.77;12.00;;;19.60;99.90;;;;;;6149212;23;20160;-80
2023/06/28 03:30:26;;;;;;;16.17;12.00;;;19.60;99.90;;;;;;6149027;23;20226;-80
2023/06/28 03:32:51;;;;;;;19.37;12.67;;;19.60;99.90;;;;;;6148929;23;20230;-76
2023/06/28 03:35:17;;;;;;;15.63;12.70;;;19.70;99.90;;;;;;6147705;23;20464;-77
2023/06/28 03:37:50;;;;;;;14.30;12.83;;;19.70;99.90;;;;;;6148423;23;20165;-80
2023/06/28 03:40:16;;;;;;;18.33;13.07;;;19.70;99.90;;;;;;6148100;23;20162;-80
2023/06/28 03:42:42;;;;;;;19.90;13.50;;;19.70;99.90;;;;;;6148941;23;20405;-80
2023/06/28 03:45:08;;;;;;;13.93;12.43;;;19.70;99.90;;;;;;6122085;23;20729;-77
2023/06/28 03:47:34;;;;;;;14.50;13.00;;;19.70;99.90;;;;;;6148333;23;20178;-80
2023/06/28 03:49:59;;;;;;;14.13;12.13;;;19.70;99.90;;;;;;6147352;23;20433;-76
2023/06/28 03:52:25;;;;;;;14.87;13.13;;;19.70;99.90;;;;;;6148306;23;20660;-76
2023/06/28 03:54:50;;;;;;;14.13;12.40;;;19.70;99.90;;;;;;6148043;23;20672;-76
2023/06/28 03:57:16;;;;;;;15.03;13.57;;;19.70;99.90;;;;;;6148932;23;20486;-81
2023/06/28 03:59:42;;;;;;;15.10;12.50;;;19.80;99.90;;;;;;6147905;23;20175;-77
2023/06/28 04:02:08;;;;;;;18.20;13.23;;;19.80;99.90;;;;;;6148371;23;20175;-82
2023/06/28 04:04:33;;;;;;;15.63;13.20;;;19.90;99.90;;;;;;6122271;23;20180;-77
2023/06/28 04:07:02;;;;;;;15.27;13.67;;;19.90;99.90;;;;;;6122299;23;20715;-83
2023/06/28 04:09:28;;;;;;;17.43;13.13;;;19.90;99.90;;;;;;6120822;23;20430;-82
2023/06/28 04:11:54;;;;;;;17.37;13.33;;;19.90;99.90;;;;;;6147973;23;20495;-77
2023/06/28 04:14:19;;;;;;;42.47;29.00;;;19.90;99.90;;;;;;6121660;23;20421;-82
2023/06/28 04:16:45;;;;;;;18.10;14.63;;;19.90;99.90;;;;;;6148624;23;20648;-77
2023/06/28 04:19:10;;;;;;;21.10;14.90;;;20.00;99.90;;;;;;6148245;23;20342;-82
2023/06/28 04:21:36;;;;;;;17.10;13.33;;;20.00;99.90;;;;;;6149032;23;20167;-77
2023/06/28 04:24:02;;;;;;;15.00;13.17;;;20.00;99.90;;;;;;6148655;23;20648;-82
2023/06/28 04:26:28;;;;;;;15.70;13.60;;;20.00;99.90;;;;;;6121482;23;20528;-77
2023/06/28 04:28:54;;;;;;;16.50;13.30;;;20.00;99.90;;;;;;6147945;23;20397;-77
2023/06/28 04:31:19;;;;;;;16.40;12.63;;;20.00;99.90;;;;;;6121474;23;20206;-81
2023/06/28 04:33:46;;;;;;;14.90;13.40;;;19.90;99.90;;;;;;6146963;23;20449;-82
2023/06/28 04:36:12;;;;;;;15.83;13.70;;;20.00;99.90;;;;;;6121151;23;20495;-82
2023/06/28 04:38:39;;;;;;;17.60;15.70;;;20.00;99.90;;;;;;6121463;23;20586;-82
2023/06/28 04:41:04;;;;;;;18.63;14.33;;;20.00;99.90;;;;;;6121665;23;20413;-77
2023/06/28 04:43:38;;;;;;;15.17;12.60;;;20.00;99.90;;;;;;6148054;23;20571;-77
2023/06/28 04:46:04;;;;;;;14.27;12.83;;;20.10;99.90;;;;;;6120793;23;20401;-77
2023/06/28 04:48:29;;;;;;;15.27;13.63;;;20.20;99.90;;;;;;6146746;23;20837;-82
2023/06/28 04:50:55;;;;;;;16.10;13.07;;;20.40;99.90;;;;;;6146042;23;20175;-77
2023/06/28 04:53:21;;;;;;;15.57;12.83;;;20.40;99.90;;;;;;6120016;23;20206;-78
2023/06/28 04:55:48;;;;;;;21.90;13.93;;;20.50;99.90;;;;;;6145965;23;20197;-83
2023/06/28 04:58:13;;;;;;;15.93;14.00;;;20.40;99.90;;;;;;6147726;23;20198;-77
2023/06/28 05:00:39;;;;;;;19.30;15.40;;;20.30;99.90;;;;;;6147760;23;20400;-82
2023/06/28 05:03:05;;;;;;;15.20;13.50;;;20.20;99.90;;;;;;6147095;23;20428;-77
2023/06/28 05:05:30;;;;;;;21.13;14.27;;;20.20;99.90;;;;;;6147468;23;20155;-78
2023/06/28 05:07:59;;;;;;;24.17;14.20;;;20.10;99.90;;;;;;6147571;23;20528;-77
2023/06/28 05:10:27;;;;;;;15.97;14.37;;;20.10;99.90;;;;;;6119620;23;20490;-78
2023/06/28 05:12:52;;;;;;;15.77;13.20;;;20.10;99.90;;;;;;6148197;23;20778;-82
2023/06/28 05:15:19;;;;;;;16.30;14.37;;;20.10;99.90;;;;;;6149361;23;20376;-82
2023/06/28 05:17:45;;;;;;;15.60;13.90;;;20.10;99.90;;;;;;6149675;23;20225;-78
2023/06/28 05:20:11;;;;;;;18.63;14.13;;;20.10;99.90;;;;;;6146368;23;20369;-81
2023/06/28 05:22:49;;;;;;;16.53;13.57;;;20.00;99.90;;;;;;6147543;23;20172;-76
2023/06/28 05:25:17;;;;;;;18.73;12.90;;;20.10;99.90;;;;;;6122254;23;20182;-81
2023/06/28 05:27:43;;;;;;;15.20;12.97;;;20.00;99.90;;;;;;6147960;23;20495;-77
2023/06/28 05:30:09;;;;;;;15.67;14.10;;;20.00;99.90;;;;;;6118884;23;20930;-82
2023/06/28 05:32:35;;;;;;;14.40;13.00;;;20.00;99.90;;;;;;6115755;23;20406;-82
2023/06/28 05:35:03;;;;;;;13.40;12.10;;;20.00;99.90;;;;;;6120559;23;20727;-79
2023/06/28 05:37:29;;;;;;;24.93;13.93;;;20.00;99.90;;;;;;6146173;23;20174;-81
2023/06/28 05:39:55;;;;;;;16.87;14.00;;;19.90;99.90;;;;;;6118881;23;20889;-82
2023/06/28 05:42:21;;;;;;;17.07;13.90;;;19.90;99.90;;;;;;6146783;23;20738;-77
2023/06/28 05:44:47;;;;;;;14.37;12.87;;;20.00;99.90;;;;;;6143224;23;20167;-78
2023/06/28 05:47:13;;;;;;;16.70;13.37;;;20.00;99.90;;;;;;6143508;23;20456;-78
2023/06/28 05:49:41;;;;;;;19.63;12.93;;;20.00;99.90;;;;;;6141732;23;20254;-78
2023/06/28 05:52:07;;;;;;;14.17;12.43;;;20.00;99.90;;;;;;6140512;23;20187;-78
2023/06/28 05:54:33;;;;;;;13.83;12.40;;;20.00;99.90;;;;;;6135598;23;20484;-79
2023/06/28 05:56:58;;;;;;;14.27;12.77;;;20.00;99.90;;;;;;6114050;23;20417;-80
2023/06/28 05:59:24;;;;;;;16.70;13.13;;;20.00;99.90;;;;;;6141124;23;20163;-81
2023/06/28 06:01:50;;;;;;;19.50;12.63;;;20.10;99.90;;;;;;6143077;23;20823;-82
2023/06/28 06:04:15;;;;;;;12.13;10.93;;;20.20;99.90;;;;;;6116010;23;20475;-81
2023/06/28 06:06:41;;;;;;;13.67;11.83;;;20.20;99.90;;;;;;6118138;23;20183;-87
2023/06/28 06:09:07;;;;;;;13.30;11.90;;;20.30;99.90;;;;;;6142670;23;20206;-78
2023/06/28 06:11:32;;;;;;;15.37;12.33;;;20.30;99.90;;;;;;6144311;23;20183;-85
2023/06/28 06:13:58;;;;;;;13.63;12.30;;;20.40;99.90;;;;;;6116442;23;20205;-76
2023/06/28 06:16:23;;;;;;;12.47;11.17;;;20.40;99.90;;;;;;6116776;23;20183;-78
2023/06/28 06:18:49;;;;;;;13.60;11.07;;;20.50;99.90;;;;;;6114445;23;20159;-78
2023/06/28 06:21:15;;;;;;;15.97;12.83;;;20.60;99.90;;;;;;6142258;23;20532;-82
2023/06/28 06:23:40;;;;;;;13.60;12.10;;;20.60;99.90;;;;;;6116003;23;20302;-77
2023/06/28 06:26:06;;;;;;;14.43;11.47;;;20.70;99.90;;;;;;6145198;23;20175;-77
2023/06/28 06:28:31;;;;;;;16.23;11.50;;;20.80;99.90;;;;;;6118729;23;20321;-82
2023/06/28 06:30:57;;;;;;;13.90;11.80;;;20.90;99.90;;;;;;6113452;23;20191;-81
2023/06/28 06:33:22;;;;;;;14.23;12.73;;;20.90;99.90;;;;;;6124096;23;20222;-83
2023/06/28 06:35:49;;;;;;;13.20;11.93;;;21.00;99.90;;;;;;6136005;23;20193;-83
2023/06/28 06:38:15;;;;;;;13.00;11.70;;;21.00;99.90;;;;;;6124706;23;20383;-81
2023/06/28 06:40:40;;;;;;;13.33;12.13;;;21.10;99.90;;;;;;6097796;23;20792;-81
2023/06/28 06:43:06;;;;;;;17.57;11.30;;;21.10;99.90;;;;;;6113600;23;20620;-78
2023/06/28 06:45:32;;;;;;;13.73;12.03;;;21.10;99.90;;;;;;6112777;23;20170;-78
2023/06/28 06:47:57;;;;;;;12.20;10.77;;;21.20;99.90;;;;;;6138039;23;20191;-79
2023/06/28 06:50:23;;;;;;;13.13;11.43;;;21.20;99.90;;;;;;6141593;23;20151;-79
2023/06/28 06:52:50;;;;;;;11.70;10.50;;;21.20;99.90;;;;;;6142768;23;20215;-81
2023/06/28 06:55:15;;;;;;;14.73;11.70;;;21.20;99.90;;;;;;6113334;23;20191;-86
2023/06/28 06:57:41;;;;;;;12.47;11.17;;;21.30;99.90;;;;;;6117035;23;20424;-88
2023/06/28 07:00:08;;;;;;;14.50;11.13;;;21.30;99.90;;;;;;6139845;23;20163;-80
2023/06/28 07:02:34;;;;;;;12.37;11.17;;;21.30;99.90;;;;;;6139446;23;20175;-80
2023/06/28 07:05:00;;;;;;;14.00;10.73;;;21.30;99.90;;;;;;6113131;23;20727;-80
2023/06/28 07:07:25;;;;;;;13.27;11.87;;;21.30;99.90;;;;;;6115123;23;20190;-82
2023/06/28 07:09:51;;;;;;;12.50;11.20;;;21.20;99.90;;;;;;6140135;23;20151;-82
2023/06/28 07:12:17;;;;;;;13.10;11.97;;;21.20;99.90;;;;;;6113646;23;20195;-81
2023/06/28 07:14:43;;;;;;;13.23;11.90;;;21.10;99.90;;;;;;6113058;23;20159;-82
2023/06/28 07:17:09;;;;;;;116.23;73.43;;;20.90;99.90;;;;;;6140468;23;20271;-81
2023/06/28 07:19:35;;;;;;;21.20;18.90;;;20.90;99.90;;;;;;6140230;23;20166;-81
2023/06/28 07:22:01;;;;;;;14.13;12.40;;;21.00;99.90;;;;;;6140278;23;20407;-82
2023/06/28 07:24:27;;;;;;;25.90;22.97;;;20.90;99.90;;;;;;6139707;23;20385;-81
2023/06/28 07:26:52;;;;;;;34.20;26.40;;;20.90;99.90;;;;;;6136379;23;20408;-82
2023/06/28 07:29:18;;;;;;;35.70;27.77;;;20.80;99.90;;;;;;6139907;23;20455;-80
2023/06/28 07:31:43;;;;;;;23.07;20.60;;;20.70;99.90;;;;;;6112984;23;20181;-79
2023/06/28 07:34:09;;;;;;;21.10;18.87;;;20.60;99.90;;;;;;6114499;23;20198;-79
2023/06/28 07:36:35;;;;;;;19.20;17.20;;;20.60;99.90;;;;;;6141912;23;20183;-79
2023/06/28 07:39:01;;;;;;;13.20;12.00;;;20.60;99.90;;;;;;6142571;23;20223;-79
2023/06/28 07:41:27;;;;;;;19.43;13.50;;;20.60;99.90;;;;;;6144342;23;20675;-81
2023/06/28 07:43:52;;;;;;;15.20;12.00;;;20.60;99.90;;;;;;6143171;23;20380;-79
2023/06/28 07:46:18;;;;;;;13.33;12.10;;;20.60;99.90;;;;;;6143889;23;20734;-81
2023/06/28 07:48:48;;;;;;;13.27;11.90;;;20.60;99.90;;;;;;6142018;23;20194;-79
2023/06/28 07:51:14;;;;;;;13.27;11.87;;;20.60;99.90;;;;;;6118154;23;20475;-80
2023/06/28 07:53:42;;;;;;;16.63;12.17;;;20.60;99.90;;;;;;6145663;23;20441;-79
2023/06/28 07:56:07;;;;;;;15.47;13.97;;;20.60;99.90;;;;;;6117828;23;20190;-81
2023/06/28 07:58:36;;;;;;;15.40;13.37;;;20.60;99.90;;;;;;6119199;23;20416;-81
2023/06/28 08:01:02;;;;;;;13.77;12.43;;;20.60;99.90;;;;;;6145072;23;20175;-79
2023/06/28 08:03:31;;;;;;;14.40;13.00;;;20.60;99.90;;;;;;6118595;23;20420;-79
2023/06/28 08:05:57;;;;;;;13.57;12.37;;;20.50;99.90;;;;;;6116752;23;20186;-78
2023/06/28 08:08:22;;;;;;;14.93;13.20;;;20.50;99.90;;;;;;6117202;23;20659;-81
2023/06/28 08:10:48;;;;;;;14.43;12.80;;;20.50;99.90;;;;;;6143387;23;20637;-80
2023/06/28 08:13:14;;;;;;;17.10;13.90;;;20.50;99.90;;;;;;6131311;23;20273;-80
2023/06/28 08:15:40;;;;;;;14.90;12.23;;;20.50;99.90;;;;;;6114648;23;20183;-81
2023/06/28 08:18:09;;;;;;;14.60;13.20;;;20.40;99.90;;;;;;6117670;23;20645;-81
2023/06/28 08:20:35;;;;;;;12.83;11.57;;;20.40;99.90;;;;;;6117984;23;20451;-81
2023/06/28 08:23:00;;;;;;;14.03;12.73;;;20.40;99.90;;;;;;6117620;23;20468;-82
2023/06/28 08:25:26;;;;;;;16.50;14.90;;;20.30;99.90;;;;;;6119093;23;20432;-80
2023/06/28 08:27:52;;;;;;;14.83;13.30;;;20.30;99.90;;;;;;6146798;23;20163;-81
2023/06/28 08:30:17;;;;;;;15.97;13.03;;;20.30;99.90;;;;;;6118259;23;20174;-80
2023/06/28 08:32:43;;;;;;;15.13;13.43;;;20.20;99.90;;;;;;6119683;23;20193;-81
2023/06/28 08:35:09;;;;;;;14.80;13.40;;;20.30;99.90;;;;;;6145476;23;20162;-80
2023/06/28 08:37:35;;;;;;;21.90;14.73;;;20.20;99.90;;;;;;6145101;23;20432;-79
2023/06/28 08:40:01;;;;;;;15.40;13.17;;;20.20;99.90;;;;;;6117844;23;20634;-81
2023/06/28 08:42:29;;;;;;;14.90;13.47;;;20.30;99.90;;;;;;6146036;23;20696;-78
2023/06/28 08:44:57;;;;;;;15.33;12.40;;;20.30;99.90;;;;;;6118185;23;20393;-78
2023/06/28 08:47:27;;;;;;;14.27;12.77;;;20.30;99.90;;;;;;6142666;23;20405;-81
2023/06/28 08:49:54;;;;;;;15.17;13.70;;;20.30;99.90;;;;;;6145944;23;20350;-78
2023/06/28 08:52:20;;;;;;;14.20;12.70;;;20.30;99.90;;;;;;6146430;23;20429;-79
2023/06/28 08:54:46;;;;;;;16.83;12.97;;;20.20;99.90;;;;;;6145873;23;20374;-79
2023/06/28 08:57:14;;;;;;;14.17;12.70;;;20.30;99.90;;;;;;6144121;23;20775;-80
2023/06/28 08:59:40;;;;;;;13.80;12.40;;;20.20;99.90;;;;;;6145019;23;20397;-79
2023/06/28 09:02:08;;;;;;;16.23;12.40;;;20.40;99.90;;;;;;6120024;23;20409;-78
2023/06/28 09:04:35;;;;;;;13.13;11.83;;;20.40;99.90;;;;;;6145246;23;20385;-81
2023/06/28 09:07:02;;;;;;;13.50;12.03;;;20.50;99.90;;;;;;6142992;23;20735;-81
2023/06/28 09:09:29;;;;;;;13.00;11.67;;;20.50;99.90;;;;;;6145140;23;20377;-79
2023/06/28 09:11:55;;;;;;;11.80;10.63;;;20.60;99.90;;;;;;6142415;23;20501;-80
2023/06/28 09:14:20;;;;;;;12.47;11.23;;;20.70;99.90;;;;;;6119248;23;20420;-79
2023/06/28 09:16:46;;;;;;;13.23;11.50;;;20.70;99.90;;;;;;6146587;23;20171;-81
2023/06/28 09:19:12;;;;;;;13.67;11.50;;;20.80;99.90;;;;;;6147180;23;20226;-81
2023/06/28 09:21:39;;;;;;;12.67;11.37;;;20.80;99.90;;;;;;6118892;23;20187;-79
2023/06/28 09:24:11;;;;;;;13.03;11.60;;;20.90;99.90;;;;;;6146095;23;20611;-78
2023/06/28 09:26:37;;;;;;;12.07;10.90;;;21.00;99.90;;;;;;6120562;23;20452;-81
2023/06/28 09:29:12;;;;;;;11.50;10.50;;;21.00;99.90;;;;;;6147432;23;20385;-79
2023/06/28 09:31:43;;;;;;;11.40;10.30;;;21.10;99.90;;;;;;6145555;23;20400;-81
2023/06/28 09:34:09;;;;;;;11.33;10.13;;;21.20;99.90;;;;;;6118478;23;20755;-81
2023/06/28 09:36:38;;;;;;;10.93;10.03;;;21.20;99.90;;;;;;6144830;23;20412;-79
2023/06/28 09:39:05;;;;;;;11.63;10.53;;;21.30;99.90;;;;;;6146718;23;20350;-78
2023/06/28 09:41:43;;;;;;;13.93;10.33;;;21.30;99.90;;;;;;6117050;23;20401;-79
2023/06/28 09:44:12;;;;;;;11.33;8.83;;;21.40;99.90;;;;;;6118252;23;20543;-78
2023/06/28 09:46:47;;;;;;;11.20;10.20;;;21.50;99.90;;;;;;6145031;23;20444;-81
2023/06/28 09:49:23;;;;;;;10.40;9.50;;;21.70;99.90;;;;;;6144397;23;20436;-81
2023/06/28 09:52:02;;;;;;;10.30;9.20;;;21.80;99.90;;;;;;6144706;23;20410;-79
2023/06/28 09:54:33;;;;;;;9.70;8.80;;;21.90;99.90;;;;;;6144512;23;20682;-81
2023/06/28 09:57:00;;;;;;;10.40;9.47;;;22.10;99.90;;;;;;6117604;23;20804;-81
2023/06/28 09:59:33;;;;;;;10.63;9.30;;;22.10;99.90;;;;;;6143191;23;20380;-80
2023/06/28 10:01:59;;;;;;;9.97;9.07;;;22.30;99.90;;;;;;6145198;23;20425;-79
2023/06/28 10:04:29;;;;;;;8.17;7.47;;;22.30;99.90;;;;;;6116590;23;20455;-81
2023/06/28 10:07:03;;;;;;;7.60;6.97;;;22.30;99.90;;;;;;6142658;23;20438;-79
2023/06/28 10:09:40;;;;;;;8.57;7.80;;;22.40;99.90;;;;;;6115634;23;20426;-81
2023/06/28 10:12:20;;;;;;;7.70;6.23;;;22.60;99.90;;;;;;6145137;23;20722;-81
2023/06/28 10:14:53;;;;;;;8.20;6.53;;;22.60;99.90;;;;;;6144951;23;20832;-79
2023/06/28 10:17:20;;;;;;;7.00;6.30;;;22.70;99.90;;;;;;6118209;23;20688;-82
2023/06/28 10:19:48;;;;;;;9.50;7.33;;;22.80;99.90;;;;;;6119253;23;20510;-79
2023/06/28 10:22:15;;;;;;;5.70;5.20;;;22.90;99.90;;;;;;6119900;23;20427;-79
2023/06/28 10:24:42;;;;;;;5.23;4.70;;;22.90;99.90;;;;;;6118122;23;20907;-82
2023/06/28 10:27:09;;;;;;;4.17;3.77;;;22.90;99.90;;;;;;6143951;23;21121;-82
2023/06/28 10:29:35;;;;;;;4.23;3.40;;;23.00;99.90;;;;;;6117575;23;20400;-79
2023/06/28 10:32:02;;;;;;;5.60;3.93;;;22.90;99.90;;;;;;6141735;23;20748;-79
2023/06/28 10:34:28;;;;;;;3.70;3.37;;;22.90;99.90;;;;;;6114299;23;20398;-82
2023/06/28 10:36:56;;;;;;;4.40;3.77;;;22.90;99.90;;;;;;6114730;23;20398;-79
2023/06/28 10:39:22;;;;;;;6.50;4.10;;;22.80;99.90;;;;;;6141806;23;20409;-79
2023/06/28 10:41:55;;;;;;;5.03;3.47;;;22.90;99.90;;;;;;6143181;23;20670;-82
2023/06/28 10:44:21;;;;;;;4.53;3.80;;;22.90;99.90;;;;;;6115741;23;20409;-82
2023/06/28 10:46:50;;;;;;;4.57;3.93;;;23.00;99.90;;;;;;6117037;23;20504;-79
2023/06/28 10:49:16;;;;;;;5.43;3.30;;;23.10;99.90;;;;;;6143409;23;20193;-79
2023/06/28 10:51:47;;;;;;;4.13;3.30;;;23.20;99.90;;;;;;6144497;23;20399;-79
2023/06/28 10:54:14;;;;;;;3.83;2.90;;;23.30;99.90;;;;;;6139488;23;20190;-82
2023/06/28 10:56:47;;;;;;;3.87;3.20;;;23.40;99.90;;;;;;6143076;23;20448;-81
2023/06/28 10:59:13;;;;;;;4.00;3.60;;;23.40;99.90;;;;;;6140422;23;20470;-82
2023/06/28 11:01:48;;;;;;;4.00;3.70;;;23.40;99.90;;;;;;6140600;23;21334;-82
2023/06/28 11:04:22;;;;;;;2.93;2.67;;;23.40;99.90;;;;;;6114093;23;20161;-79
2023/06/28 11:07:16;;;;;;;3.10;2.90;;;23.50;99.90;;;;;;6113113;23;20475;-82
2023/06/28 11:10:16;;;;;;;3.23;2.50;;;23.50;99.90;;;;;;6112910;23;20968;-82
2023/06/28 11:12:50;;;;;;;2.77;2.20;;;23.70;99.90;;;;;;6112407;23;20452;-82
2023/06/28 11:15:27;;;;;;;2.60;2.10;;;23.80;99.90;;;;;;6128121;23;20383;-82
2023/06/28 11:17:52;;;;;;;3.20;2.20;;;23.80;99.90;;;;;;6139309;23;20456;-82
2023/06/28 11:20:18;;;;;;;6.30;2.57;;;23.80;99.90;;;;;;6138823;23;21087;-79
2023/06/28 11:22:51;;;;;;;2.60;2.40;;;23.90;99.90;;;;;;6137004;23;20560;-82
2023/06/28 11:25:20;;;;;;;2.80;2.23;;;24.00;99.90;;;;;;6138095;23;20707;-82
2023/06/28 11:27:46;;;;;;;2.40;2.20;;;24.10;99.90;;;;;;6112946;23;20810;-81
2023/06/28 11:30:16;;;;;;;4.30;2.03;;;24.10;99.90;;;;;;6139314;23;20389;-82
2023/06/28 11:32:41;;;;;;;2.80;2.30;;;24.20;99.90;;;;;;6141899;23;20827;-80
2023/06/28 11:35:07;;;;;;;4.60;2.00;;;24.30;99.90;;;;;;6146150;23;20380;-80
2023/06/28 11:37:35;;;;;;;2.30;2.10;;;24.40;99.90;;;;;;6121027;23;20660;-80
2023/06/28 11:40:03;;;;;;;2.90;2.60;;;24.40;99.90;;;;;;6117108;23;20392;-82
2023/06/28 11:42:28;;;;;;;1.97;1.87;;;24.40;99.90;;;;;;6115920;23;20703;-79
2023/06/28 11:44:54;;;;;;;2.90;2.20;;;24.40;99.90;;;;;;6140856;23;20723;-82
2023/06/28 11:47:22;;;;;;;2.77;2.47;;;24.50;99.90;;;;;;6143767;23;20699;-82
2023/06/28 11:49:48;;;;;;;6.43;2.80;;;24.60;99.90;;;;;;6114870;23;20178;-82
2023/06/28 11:52:20;;;;;;;2.17;2.07;;;24.70;99.90;;;;;;6117486;23;20929;-82
2023/06/28 11:54:46;;;;;;;4.50;3.10;;;24.70;99.90;;;;;;6142338;23;20380;-79
2023/06/28 11:57:12;;;;;;;3.77;2.53;;;24.70;99.90;;;;;;6117583;23;20417;-82
2023/06/28 11:59:44;;;;;;;2.70;2.50;;;24.70;99.90;;;;;;6118736;23;20174;-79
2023/06/28 12:02:10;;;;;;;3.33;2.63;;;24.60;99.90;;;;;;6145811;23;20221;-79
2023/06/28 12:04:37;;;;;;;3.00;2.57;;;24.60;99.90;;;;;;6143660;23;20697;-82
2023/06/28 12:07:04;;;;;;;3.97;2.80;;;24.70;99.80;;;;;;6144560;23;20401;-80
2023/06/28 12:09:31;;;;;;;4.30;2.67;;;24.80;99.20;;;;;;6117185;23;20388;-82
2023/06/28 12:12:05;;;;;;;3.60;2.27;;;24.80;98.90;;;;;;6144937;23;20401;-79
2023/06/28 12:14:43;;;;;;;2.73;2.40;;;24.80;98.50;;;;;;6142306;23;20390;-79
2023/06/28 12:17:08;;;;;;;2.70;2.50;;;24.80;97.80;;;;;;6116413;23;20483;-82
2023/06/28 12:19:35;;;;;;;2.97;2.67;;;24.70;97.90;;;;;;6143519;23;20733;-82
2023/06/28 12:22:08;;;;;;;2.10;2.00;;;24.80;98.10;;;;;;6117960;23;20543;-82
2023/06/28 12:24:35;;;;;;;3.43;2.20;;;24.70;97.10;;;;;;6143985;23;20401;-82
2023/06/28 12:27:10;;;;;;;3.60;2.73;;;24.70;96.90;;;;;;6145606;23;20412;-79
2023/06/28 12:29:37;;;;;;;3.03;2.30;;;24.80;96.60;;;;;;6118565;23;20471;-79